sensor_id;sensor_type;location;lat;lon;timestamp;P1;durP1;ratioP1;P2;durP2;ratioP2
48526;SDS011;34317;51.660;5.824;2022-11-20T00:01:19;17.90;;;8.85;;
48526;SDS011;34317;51.660;5.824;2022-11-20T00:03:48;16.48;;;9.13;;
48526;SDS011;34317;51.660;5.824;2022-11-20T00:06:17;15.20;;;8.48;;
48526;SDS011;34317;51.660;5.824;2022-11-20T00:08:45;15.80;;;8.95;;
48526;SDS011;34317;51.660;5.824;2022-11-20T00:11:14;19.33;;;9.02;;
48526;SDS011;34317;51.660;5.824;2022-11-20T00:13:44;17.58;;;8.80;;
48526;SDS011;34317;51.660;5.824;2022-11-20T00:16:13;19.02;;;9.63;;
48526;SDS011;34317;51.660;5.824;2022-11-20T00:18:42;17.67;;;9.00;;
48526;SDS011;34317;51.660;5.824;2022-11-20T00:21:11;18.00;;;8.80;;
48526;SDS011;34317;51.660;5.824;2022-11-20T00:23:40;17.35;;;8.00;;
48526;SDS011;34317;51.660;5.824;2022-11-20T00:26:18;19.90;;;8.30;;
48526;SDS011;34317;51.660;5.824;2022-11-20T00:28:49;17.08;;;8.45;;
48526;SDS011;34317;51.660;5.824;2022-11-20T00:31:18;17.70;;;8.77;;
48526;SDS011;34317;51.660;5.824;2022-11-20T00:33:46;16.02;;;8.82;;
48526;SDS011;34317;51.660;5.824;2022-11-20T00:36:14;16.75;;;8.73;;
48526;SDS011;34317;51.660;5.824;2022-11-20T00:38:43;16.95;;;8.52;;
48526;SDS011;34317;51.660;5.824;2022-11-20T00:41:11;17.23;;;8.77;;
48526;SDS011;34317;51.660;5.824;2022-11-20T00:43:40;21.92;;;9.45;;
48526;SDS011;34317;51.660;5.824;2022-11-20T00:46:08;17.23;;;8.77;;
48526;SDS011;34317;51.660;5.824;2022-11-20T00:48:37;17.42;;;9.13;;
48526;SDS011;34317;51.660;5.824;2022-11-20T00:51:04;18.52;;;8.82;;
48526;SDS011;34317;51.660;5.824;2022-11-20T00:53:31;18.48;;;9.70;;
48526;SDS011;34317;51.660;5.824;2022-11-20T00:55:59;17.25;;;8.90;;
48526;SDS011;34317;51.660;5.824;2022-11-20T00:58:34;20.27;;;9.20;;
48526;SDS011;34317;51.660;5.824;2022-11-20T01:01:04;18.27;;;9.13;;
48526;SDS011;34317;51.660;5.824;2022-11-20T01:03:40;15.65;;;9.25;;
48526;SDS011;34317;51.660;5.824;2022-11-20T01:06:15;16.73;;;8.65;;
48526;SDS011;34317;51.660;5.824;2022-11-20T01:08:46;21.83;;;9.00;;
48526;SDS011;34317;51.660;5.824;2022-11-20T01:11:16;18.05;;;9.00;;
48526;SDS011;34317;51.660;5.824;2022-11-20T01:13:46;19.42;;;8.95;;
48526;SDS011;34317;51.660;5.824;2022-11-20T01:16:15;23.88;;;8.45;;
48526;SDS011;34317;51.660;5.824;2022-11-20T01:18:48;18.35;;;8.95;;
48526;SDS011;34317;51.660;5.824;2022-11-20T01:21:19;19.50;;;9.40;;
48526;SDS011;34317;51.660;5.824;2022-11-20T01:23:47;18.25;;;9.68;;
48526;SDS011;34317;51.660;5.824;2022-11-20T01:26:16;15.88;;;8.50;;
48526;SDS011;34317;51.660;5.824;2022-11-20T01:28:51;18.83;;;9.30;;
48526;SDS011;34317;51.660;5.824;2022-11-20T01:31:20;15.35;;;8.90;;
48526;SDS011;34317;51.660;5.824;2022-11-20T01:33:50;16.73;;;8.73;;
48526;SDS011;34317;51.660;5.824;2022-11-20T01:36:20;22.35;;;9.73;;
48526;SDS011;34317;51.660;5.824;2022-11-20T01:38:51;18.27;;;9.07;;
48526;SDS011;34317;51.660;5.824;2022-11-20T01:41:19;16.65;;;9.00;;
48526;SDS011;34317;51.660;5.824;2022-11-20T01:44:06;18.00;;;9.23;;
48526;SDS011;34317;51.660;5.824;2022-11-20T01:46:34;19.90;;;9.55;;
48526;SDS011;34317;51.660;5.824;2022-11-20T01:49:10;18.95;;;9.02;;
48526;SDS011;34317;51.660;5.824;2022-11-20T01:51:57;19.27;;;9.80;;
48526;SDS011;34317;51.660;5.824;2022-11-20T01:54:29;17.27;;;9.48;;
48526;SDS011;34317;51.660;5.824;2022-11-20T01:57:02;15.80;;;9.23;;
48526;SDS011;34317;51.660;5.824;2022-11-20T01:59:33;18.90;;;9.40;;
48526;SDS011;34317;51.660;5.824;2022-11-20T02:02:03;16.27;;;8.95;;
48526;SDS011;34317;51.660;5.824;2022-11-20T02:04:30;18.80;;;9.15;;
48526;SDS011;34317;51.660;5.824;2022-11-20T02:06:59;18.73;;;9.73;;
48526;SDS011;34317;51.660;5.824;2022-11-20T02:09:27;18.63;;;9.20;;
48526;SDS011;34317;51.660;5.824;2022-11-20T02:11:55;19.30;;;9.63;;
48526;SDS011;34317;51.660;5.824;2022-11-20T02:14:24;18.80;;;9.13;;
48526;SDS011;34317;51.660;5.824;2022-11-20T02:16:51;14.95;;;8.85;;
48526;SDS011;34317;51.660;5.824;2022-11-20T02:19:26;16.95;;;9.32;;
48526;SDS011;34317;51.660;5.824;2022-11-20T02:22:05;18.58;;;9.30;;
48526;SDS011;34317;51.660;5.824;2022-11-20T02:24:40;17.07;;;8.83;;
48526;SDS011;34317;51.660;5.824;2022-11-20T02:27:14;20.40;;;10.05;;
48526;SDS011;34317;51.660;5.824;2022-11-20T02:29:52;17.73;;;9.07;;
48526;SDS011;34317;51.660;5.824;2022-11-20T02:32:29;19.42;;;9.35;;
48526;SDS011;34317;51.660;5.824;2022-11-20T02:35:05;18.83;;;9.18;;
48526;SDS011;34317;51.660;5.824;2022-11-20T02:37:34;18.02;;;9.27;;
48526;SDS011;34317;51.660;5.824;2022-11-20T02:40:05;17.38;;;9.77;;
48526;SDS011;34317;51.660;5.824;2022-11-20T02:42:32;16.92;;;8.57;;
48526;SDS011;34317;51.660;5.824;2022-11-20T02:44:59;17.77;;;9.40;;
48526;SDS011;34317;51.660;5.824;2022-11-20T02:47:26;18.42;;;9.73;;
48526;SDS011;34317;51.660;5.824;2022-11-20T02:49:53;19.58;;;10.23;;
48526;SDS011;34317;51.660;5.824;2022-11-20T02:52:20;20.13;;;9.77;;
48526;SDS011;34317;51.660;5.824;2022-11-20T02:54:47;17.73;;;9.82;;
48526;SDS011;34317;51.660;5.824;2022-11-20T02:57:15;18.67;;;9.93;;
48526;SDS011;34317;51.660;5.824;2022-11-20T02:59:42;18.42;;;10.18;;
48526;SDS011;34317;51.660;5.824;2022-11-20T03:02:09;21.67;;;10.40;;
48526;SDS011;34317;51.660;5.824;2022-11-20T03:04:36;17.30;;;9.63;;
48526;SDS011;34317;51.660;5.824;2022-11-20T03:07:04;21.23;;;10.27;;
48526;SDS011;34317;51.660;5.824;2022-11-20T03:09:31;18.67;;;10.10;;
48526;SDS011;34317;51.660;5.824;2022-11-20T03:11:58;22.85;;;10.82;;
48526;SDS011;34317;51.660;5.824;2022-11-20T03:14:25;20.83;;;10.80;;
48526;SDS011;34317;51.660;5.824;2022-11-20T03:16:52;22.52;;;11.10;;
48526;SDS011;34317;51.660;5.824;2022-11-20T03:19:19;22.52;;;10.57;;
48526;SDS011;34317;51.660;5.824;2022-11-20T03:21:47;18.67;;;10.50;;
48526;SDS011;34317;51.660;5.824;2022-11-20T03:24:14;22.58;;;11.48;;
48526;SDS011;34317;51.660;5.824;2022-11-20T03:26:41;19.42;;;10.50;;
48526;SDS011;34317;51.660;5.824;2022-11-20T03:29:08;20.85;;;10.63;;
48526;SDS011;34317;51.660;5.824;2022-11-20T03:31:36;19.92;;;10.27;;
48526;SDS011;34317;51.660;5.824;2022-11-20T03:34:07;21.75;;;10.88;;
48526;SDS011;34317;51.660;5.824;2022-11-20T03:36:39;21.55;;;10.48;;
48526;SDS011;34317;51.660;5.824;2022-11-20T03:39:07;18.90;;;10.10;;
48526;SDS011;34317;51.660;5.824;2022-11-20T03:41:36;20.50;;;10.57;;
48526;SDS011;34317;51.660;5.824;2022-11-20T03:44:05;22.35;;;10.57;;
48526;SDS011;34317;51.660;5.824;2022-11-20T03:46:36;21.63;;;10.05;;
48526;SDS011;34317;51.660;5.824;2022-11-20T03:49:03;21.13;;;11.23;;
48526;SDS011;34317;51.660;5.824;2022-11-20T03:51:31;21.58;;;10.80;;
48526;SDS011;34317;51.660;5.824;2022-11-20T03:54:01;19.85;;;10.63;;
48526;SDS011;34317;51.660;5.824;2022-11-20T03:56:30;21.75;;;10.75;;
48526;SDS011;34317;51.660;5.824;2022-11-20T03:58:59;20.05;;;10.27;;
48526;SDS011;34317;51.660;5.824;2022-11-20T04:01:27;21.40;;;11.25;;
48526;SDS011;34317;51.660;5.824;2022-11-20T04:03:57;22.13;;;10.82;;
48526;SDS011;34317;51.660;5.824;2022-11-20T04:06:25;17.83;;;10.02;;
48526;SDS011;34317;51.660;5.824;2022-11-20T04:08:54;22.25;;;10.30;;
48526;SDS011;34317;51.660;5.824;2022-11-20T04:11:32;18.02;;;9.90;;
48526;SDS011;34317;51.660;5.824;2022-11-20T04:14:02;19.55;;;9.82;;
48526;SDS011;34317;51.660;5.824;2022-11-20T04:16:32;19.30;;;9.80;;
48526;SDS011;34317;51.660;5.824;2022-11-20T04:19:02;19.92;;;9.95;;
48526;SDS011;34317;51.660;5.824;2022-11-20T04:21:31;19.45;;;10.48;;
48526;SDS011;34317;51.660;5.824;2022-11-20T04:23:58;20.20;;;10.18;;
48526;SDS011;34317;51.660;5.824;2022-11-20T04:26:26;20.55;;;10.65;;
48526;SDS011;34317;51.660;5.824;2022-11-20T04:28:54;21.35;;;9.73;;
48526;SDS011;34317;51.660;5.824;2022-11-20T04:31:23;19.05;;;9.93;;
48526;SDS011;34317;51.660;5.824;2022-11-20T04:33:52;20.08;;;9.27;;
48526;SDS011;34317;51.660;5.824;2022-11-20T04:36:23;21.33;;;10.10;;
48526;SDS011;34317;51.660;5.824;2022-11-20T04:38:52;21.30;;;10.50;;
48526;SDS011;34317;51.660;5.824;2022-11-20T04:41:27;19.13;;;10.25;;
48526;SDS011;34317;51.660;5.824;2022-11-20T04:43:56;19.25;;;10.07;;
48526;SDS011;34317;51.660;5.824;2022-11-20T04:46:34;18.17;;;9.38;;
48526;SDS011;34317;51.660;5.824;2022-11-20T04:49:03;18.13;;;9.95;;
48526;SDS011;34317;51.660;5.824;2022-11-20T04:51:30;19.05;;;9.95;;
48526;SDS011;34317;51.660;5.824;2022-11-20T04:53:57;19.67;;;10.20;;
48526;SDS011;34317;51.660;5.824;2022-11-20T04:56:25;17.80;;;9.60;;
48526;SDS011;34317;51.660;5.824;2022-11-20T04:58:52;18.40;;;9.25;;
48526;SDS011;34317;51.660;5.824;2022-11-20T05:01:22;21.55;;;10.35;;
48526;SDS011;34317;51.660;5.824;2022-11-20T05:03:51;18.83;;;9.52;;
48526;SDS011;34317;51.660;5.824;2022-11-20T05:06:19;18.55;;;9.32;;
48526;SDS011;34317;51.660;5.824;2022-11-20T05:08:48;19.27;;;9.90;;
48526;SDS011;34317;51.660;5.824;2022-11-20T05:11:17;20.05;;;10.13;;
48526;SDS011;34317;51.660;5.824;2022-11-20T05:13:46;25.17;;;9.95;;
48526;SDS011;34317;51.660;5.824;2022-11-20T05:16:18;16.17;;;9.15;;
48526;SDS011;34317;51.660;5.824;2022-11-20T05:18:47;20.60;;;9.77;;
48526;SDS011;34317;51.660;5.824;2022-11-20T05:21:15;19.77;;;10.68;;
48526;SDS011;34317;51.660;5.824;2022-11-20T05:23:43;18.95;;;10.02;;
48526;SDS011;34317;51.660;5.824;2022-11-20T05:26:16;22.85;;;9.73;;
48526;SDS011;34317;51.660;5.824;2022-11-20T05:28:45;17.67;;;9.73;;
48526;SDS011;34317;51.660;5.824;2022-11-20T05:31:14;21.45;;;10.70;;
48526;SDS011;34317;51.660;5.824;2022-11-20T05:33:53;23.05;;;10.43;;
48526;SDS011;34317;51.660;5.824;2022-11-20T05:36:21;20.05;;;10.20;;
48526;SDS011;34317;51.660;5.824;2022-11-20T05:38:48;22.38;;;10.60;;
48526;SDS011;34317;51.660;5.824;2022-11-20T05:41:18;18.52;;;9.75;;
48526;SDS011;34317;51.660;5.824;2022-11-20T05:43:46;22.75;;;10.75;;
48526;SDS011;34317;51.660;5.824;2022-11-20T05:46:15;19.38;;;9.68;;
48526;SDS011;34317;51.660;5.824;2022-11-20T05:48:46;19.08;;;10.30;;
48526;SDS011;34317;51.660;5.824;2022-11-20T05:51:15;19.15;;;10.15;;
48526;SDS011;34317;51.660;5.824;2022-11-20T05:53:44;18.58;;;10.23;;
48526;SDS011;34317;51.660;5.824;2022-11-20T05:56:15;21.63;;;11.00;;
48526;SDS011;34317;51.660;5.824;2022-11-20T05:58:44;19.02;;;10.07;;
48526;SDS011;34317;51.660;5.824;2022-11-20T06:01:22;17.88;;;9.60;;
48526;SDS011;34317;51.660;5.824;2022-11-20T06:03:50;19.40;;;10.05;;
48526;SDS011;34317;51.660;5.824;2022-11-20T06:06:19;18.52;;;9.60;;
48526;SDS011;34317;51.660;5.824;2022-11-20T06:08:46;18.75;;;9.88;;
48526;SDS011;34317;51.660;5.824;2022-11-20T06:11:14;19.60;;;9.73;;
48526;SDS011;34317;51.660;5.824;2022-11-20T06:13:42;20.17;;;10.00;;
48526;SDS011;34317;51.660;5.824;2022-11-20T06:16:10;20.17;;;9.70;;
48526;SDS011;34317;51.660;5.824;2022-11-20T06:18:39;20.58;;;10.00;;
48526;SDS011;34317;51.660;5.824;2022-11-20T06:21:14;20.35;;;10.35;;
48526;SDS011;34317;51.660;5.824;2022-11-20T06:23:43;18.80;;;10.02;;
48526;SDS011;34317;51.660;5.824;2022-11-20T06:26:16;20.40;;;9.70;;
